createdAt,value
2014-08-06T00:00:42.605Z,19.7
2014-08-06T00:01:47.279Z,19.5
2014-08-06T00:02:52.266Z,19.49
2014-08-06T00:03:56.942Z,19.56
2014-08-06T00:05:01.928Z,19.51
2014-08-06T00:06:07.196Z,19.14
2014-08-06T00:07:12.181Z,19.14
2014-08-06T00:08:16.871Z,19.04
2014-08-06T00:09:21.561Z,19.06
2014-08-06T00:10:26.234Z,19.14
2014-08-06T00:11:30.924Z,19.34
2014-08-06T00:12:35.598Z,19.63
2014-08-06T00:13:40.585Z,19.42
2014-08-06T00:14:45.257Z,18.96
2014-08-06T00:15:50.245Z,19
2014-08-06T00:16:55.230Z,19.04
2014-08-06T00:18:00.201Z,18.97
2014-08-06T00:19:05.187Z,19
2014-08-06T00:20:09.862Z,19.06
2014-08-06T00:21:14.552Z,19
2014-08-06T00:22:19.523Z,19.16
2014-08-06T00:23:24.807Z,19.16
2014-08-06T00:24:29.496Z,18.97
2014-08-06T00:25:34.169Z,18.8
2014-08-06T00:26:39.453Z,18.85
2014-08-06T00:27:44.126Z,18.84
2014-08-06T00:28:48.816Z,18.85
2014-08-06T00:29:53.490Z,18.9
2014-08-06T00:30:58.476Z,18.82
2014-08-06T00:32:03.337Z,19.01
2014-08-06T00:33:08.324Z,19.35
2014-08-06T00:34:13.013Z,19.44
2014-08-06T00:35:18.000Z,19.43
2014-08-06T00:36:22.691Z,19.42
2014-08-06T00:37:27.365Z,19.54
2014-08-06T00:38:32.054Z,19.35
2014-08-06T00:39:36.728Z,19.2
2014-08-06T00:40:41.715Z,18.84
2014-08-06T00:41:46.404Z,18.8
2014-08-06T00:42:51.374Z,19.24
2014-08-06T00:43:55.376Z,19.31
2014-08-06T00:45:00.660Z,19.32
2014-08-06T00:46:05.333Z,19.32
2014-08-06T00:47:10.024Z,19.34
2014-08-06T00:48:14.697Z,18.82
2014-08-06T00:49:19.386Z,18.71
2014-08-06T00:50:24.060Z,18.73
2014-08-06T00:51:28.750Z,18.79
2014-08-06T00:52:33.721Z,18.95
2014-08-06T00:53:38.410Z,19
2014-08-06T00:54:43.086Z,19.08
2014-08-06T00:55:48.072Z,19.11
2014-08-06T00:56:52.747Z,18.98
2014-08-06T00:57:57.435Z,19.11
2014-08-06T00:59:02.109Z,19.21
2014-08-06T01:00:06.800Z,19.35
2014-08-06T01:01:11.785Z,19.37
2014-08-06T01:02:16.459Z,19.43
2014-08-06T01:03:21.743Z,19.46
2014-08-06T01:04:27.026Z,19.38
2014-08-06T01:05:32.012Z,19.56
2014-08-06T01:06:36.982Z,19.58
2014-08-06T01:07:41.673Z,19.73
2014-08-06T01:08:46.347Z,19.62
2014-08-06T01:09:51.035Z,19.32
2014-08-06T01:10:55.023Z,19.15
2014-08-06T01:11:59.712Z,18.95
2014-08-06T01:13:04.386Z,19.22
2014-08-06T01:14:09.076Z,19.16
2014-08-06T01:15:14.046Z,19.28
2014-08-06T01:16:19.033Z,19.25
2014-08-06T01:17:23.722Z,19.35
2014-08-06T01:18:28.693Z,19.32
2014-08-06T01:19:33.383Z,19.33
2014-08-06T01:20:38.057Z,19.3
2014-08-06T01:21:43.044Z,19.1
2014-08-06T01:22:47.717Z,18.97
2014-08-06T01:23:52.713Z,18.88
2014-08-06T01:24:58.037Z,18.92
2014-08-06T01:26:03.069Z,18.98
2014-08-06T01:27:08.080Z,18.94
2014-08-06T01:28:12.815Z,18.94
2014-08-06T01:29:17.531Z,19.04
2014-08-06T01:30:22.221Z,19.06
2014-08-06T01:31:26.926Z,19.2
2014-08-06T01:32:31.912Z,19.21
2014-08-06T01:33:36.914Z,18.59
2014-08-06T01:34:41.595Z,18.36
2014-08-06T01:35:46.289Z,18.73
2014-08-06T01:36:51.265Z,18.88
2014-08-06T01:37:56.256Z,18.66
2014-08-06T01:39:00.937Z,18.71
2014-08-06T01:40:05.629Z,18.78
2014-08-06T01:41:10.305Z,19.1
2014-08-06T01:42:15.297Z,18.92
2014-08-06T01:43:19.987Z,18.73
2014-08-06T01:44:24.662Z,18.72
2014-08-06T01:45:29.353Z,18.81
2014-08-06T01:46:34.028Z,18.82
2014-08-06T01:47:39.014Z,18.85
2014-08-06T01:48:44.001Z,19.03
2014-08-06T01:49:48.675Z,18.86
2014-08-06T01:50:53.365Z,18.38
2014-08-06T01:51:58.039Z,18.48
2014-08-06T01:53:02.728Z,18.42
2014-08-06T01:54:07.699Z,18.5
2014-08-06T01:55:12.388Z,18.63
2014-08-06T01:56:17.062Z,18.82
2014-08-06T01:57:21.752Z,18.78
2014-08-06T01:58:26.426Z,18.84
2014-08-06T01:59:31.116Z,18.55
2014-08-06T02:00:35.790Z,18.34
2014-08-06T02:01:40.775Z,18.59
2014-08-06T02:02:45.762Z,18.61
2014-08-06T02:03:50.436Z,18.7
2014-08-06T02:04:55.126Z,18.61
2014-08-06T02:06:00.112Z,18.63
2014-08-06T02:07:04.786Z,18.34
2014-08-06T02:08:09.476Z,18.11
2014-08-06T02:09:14.462Z,18.04
2014-08-06T02:10:19.152Z,18
2014-08-06T02:11:24.122Z,18.04
2014-08-06T02:12:28.811Z,18.03
2014-08-06T02:13:33.486Z,17.94
2014-08-06T02:14:38.472Z,17.98
2014-08-06T02:15:43.443Z,18.44
2014-08-06T02:16:48.133Z,18.21
2014-08-06T02:17:52.808Z,18.31
2014-08-06T02:18:58.092Z,18.57
2014-08-06T02:20:03.078Z,18.69
2014-08-06T02:21:08.048Z,18.77
2014-08-06T02:22:12.738Z,18.86
2014-08-06T02:23:17.412Z,18.81
2014-08-06T02:24:22.101Z,18.96
2014-08-06T02:25:27.087Z,18.8
2014-08-06T02:26:32.073Z,18.79
2014-08-06T02:27:37.044Z,18.64
2014-08-06T02:28:41.735Z,18.67
2014-08-06T02:29:46.408Z,18.7
2014-08-06T02:30:51.394Z,18.43
2014-08-06T02:31:56.365Z,18.19
2014-08-06T02:33:01.352Z,18.15
2014-08-06T02:34:06.324Z,18.06
2014-08-06T02:35:11.310Z,17.81
2014-08-06T02:36:15.984Z,18.01
2014-08-06T02:37:20.970Z,18.24
2014-08-06T02:38:25.644Z,18.12
2014-08-06T02:39:30.631Z,18.41
2014-08-06T02:40:35.304Z,18.46
2014-08-06T02:41:40.291Z,18.53
2014-08-06T02:42:44.980Z,18.6
2014-08-06T02:43:49.670Z,18.72
2014-08-06T02:44:54.656Z,18.65
2014-08-06T02:45:59.329Z,18.62
2014-08-06T02:47:04.019Z,18.5
2014-08-06T02:48:08.989Z,18.24
2014-08-06T02:49:13.977Z,18.09
2014-08-06T02:50:18.962Z,18.32
2014-08-06T02:51:23.936Z,18.3
2014-08-06T02:54:36.066Z,17.98
2014-08-06T02:55:40.740Z,17.94
2014-08-06T02:56:44.695Z,18.05
2014-08-06T02:57:49.369Z,18.16
2014-08-06T02:58:54.324Z,18.22
2014-08-06T02:59:59.294Z,18.5
2014-08-06T03:01:04.250Z,18.66
2014-08-06T03:02:08.235Z,18.58
2014-08-06T03:03:13.207Z,18.38
2014-08-06T03:04:17.895Z,18.49
2014-08-06T03:05:22.866Z,18.44
2014-08-06T03:06:27.556Z,18.44
2014-08-06T03:07:32.527Z,18.57
2014-08-06T03:08:37.217Z,18.49
2014-08-06T03:09:41.908Z,18.5
2014-08-06T03:10:46.894Z,18.51
2014-08-06T03:11:51.880Z,18.54
2014-08-06T03:12:56.554Z,18.57
2014-08-06T03:14:01.540Z,18.36
2014-08-06T03:15:06.230Z,18.37
2014-08-06T03:16:10.904Z,18.33
2014-08-06T03:19:26.050Z,17.88
2014-08-06T03:20:31.006Z,17.79
2014-08-06T03:21:35.976Z,17.72
2014-08-06T03:22:40.635Z,17.72
2014-08-06T03:23:45.292Z,17.73
2014-08-06T03:24:49.950Z,17.99
2014-08-06T03:25:54.624Z,18.12
2014-08-06T03:26:59.284Z,17.88
2014-08-06T03:28:03.943Z,17.72
2014-08-06T03:29:08.929Z,17.62
2014-08-06T03:30:13.604Z,17.59
2014-08-06T03:31:18.590Z,17.92
2014-08-06T03:32:23.576Z,18.14
2014-08-06T03:33:28.250Z,18.12
2014-08-06T03:34:32.940Z,18.2
2014-08-06T03:35:37.629Z,18.35
2014-08-06T03:36:42.303Z,18.2
2014-08-06T03:37:46.993Z,18.16
2014-08-06T03:38:51.963Z,18.29
2014-08-06T03:39:56.950Z,18.32
2014-08-06T03:41:01.624Z,18.38
2014-08-06T03:42:06.610Z,17.81
2014-08-06T03:43:11.581Z,17.69
2014-08-06T03:44:16.270Z,17.62
2014-08-06T03:45:20.944Z,17.66
2014-08-06T03:46:25.931Z,18.06
2014-08-06T03:47:30.604Z,18.16
2014-08-06T03:48:35.592Z,18.1
2014-08-06T03:49:40.266Z,17.74
2014-08-06T03:50:45.252Z,17.59
2014-08-06T03:51:49.926Z,17.52
2014-08-06T03:52:54.615Z,17.56
2014-08-06T03:53:59.602Z,17.6
2014-08-06T03:55:04.588Z,17.3
2014-08-06T03:56:09.262Z,17.42
2014-08-06T03:57:14.248Z,17.75
2014-08-06T03:58:18.921Z,17.56
2014-08-06T03:59:23.908Z,17.21
2014-08-06T04:00:28.583Z,17.28
2014-08-06T04:01:33.255Z,17.26
2014-08-06T04:02:38.243Z,17.56
2014-08-06T04:03:43.214Z,17.55
2014-08-06T04:04:47.903Z,17.82
2014-08-06T04:05:52.873Z,17.88
2014-08-06T04:09:05.304Z,17.84
2014-08-06T04:10:10.273Z,17.86
2014-08-06T04:11:15.244Z,17.89
2014-08-06T04:12:20.199Z,17.94
2014-08-06T04:13:24.873Z,17.37
2014-08-06T04:14:29.531Z,17.08
2014-08-06T04:15:34.190Z,17.54
2014-08-06T04:16:38.864Z,17.64
2014-08-06T04:17:43.850Z,17.74
2014-08-06T04:18:48.523Z,17.84
2014-08-06T04:19:53.212Z,17.79
2014-08-06T04:20:57.903Z,17.74
2014-08-06T04:22:02.874Z,17.79
2014-08-06T04:23:07.563Z,17.68
2014-08-06T04:24:12.236Z,17.78
2014-08-06T04:25:17.222Z,17.74
2014-08-06T04:26:22.195Z,17.75
2014-08-06T04:27:26.886Z,17.84
2014-08-06T04:28:31.856Z,17.97
2014-08-06T04:29:36.843Z,17.84
2014-08-06T04:30:41.516Z,18.06
2014-08-06T04:31:46.205Z,17.94
2014-08-06T04:32:51.177Z,17.98
2014-08-06T04:33:56.148Z,18.06
2014-08-06T04:35:00.837Z,17.97
2014-08-06T04:36:05.526Z,17.77
2014-08-06T04:37:10.793Z,17.81
2014-08-06T04:38:15.483Z,17.94
2014-08-06T04:39:20.766Z,17.91
2014-08-06T04:40:25.440Z,18.06
2014-08-06T04:41:30.129Z,18.07
2014-08-06T04:42:34.803Z,18.28
2014-08-06T04:43:39.791Z,18.18
2014-08-06T04:44:44.465Z,18.15
2014-08-06T04:45:49.749Z,18.18
2014-08-06T04:46:54.719Z,18.16
2014-08-06T04:47:59.706Z,18.25
2014-08-06T04:49:04.380Z,18.36
2014-08-06T04:50:09.069Z,18.49
2014-08-06T04:51:14.039Z,18.48
2014-08-06T04:52:19.025Z,18.38
2014-08-06T04:53:23.715Z,18.38
2014-08-06T04:54:28.389Z,18.48
2014-08-06T04:55:33.078Z,18.41
2014-08-06T04:56:37.768Z,18.26
2014-08-06T04:57:42.738Z,18.25
2014-08-06T04:58:47.427Z,18.1
2014-08-06T04:59:52.104Z,17.98
2014-08-06T05:00:56.792Z,18.13
2014-08-06T05:02:01.467Z,18.4
2014-08-06T05:03:06.156Z,18.09
2014-08-06T05:04:11.143Z,17.98
2014-08-06T05:05:16.411Z,17.85
2014-08-06T05:06:21.397Z,18.08
2014-08-06T05:07:26.382Z,18.64
2014-08-06T05:08:31.072Z,18.53
2014-08-06T05:09:36.043Z,18.7
2014-08-06T05:10:41.326Z,18.92
2014-08-06T05:11:46.595Z,18.98
2014-08-06T05:12:51.580Z,19.13
2014-08-06T05:13:56.551Z,19.18
2014-08-06T05:15:01.538Z,19.14
2014-08-06T05:16:06.212Z,19.44
2014-08-06T05:17:10.901Z,19.44
2014-08-06T05:18:15.574Z,19.39
2014-08-06T05:19:20.265Z,18.93
2014-08-06T05:20:24.939Z,18.58
2014-08-06T05:21:29.627Z,18.82
2014-08-06T05:22:34.615Z,18.78
2014-08-06T05:23:39.288Z,18.82
2014-08-06T05:24:43.979Z,19.26
2014-08-06T05:25:48.667Z,19.56
2014-08-06T05:26:53.638Z,19.54
2014-08-06T05:27:58.329Z,19.26
2014-08-06T05:29:03.002Z,18.98
2014-08-06T05:30:07.988Z,18.77
2014-08-06T05:31:12.975Z,18.68
2014-08-06T05:32:17.946Z,18.6
2014-08-06T05:33:22.636Z,18.71
2014-08-06T05:34:27.605Z,18.6
2014-08-06T05:35:32.296Z,18.5
2014-08-06T05:36:36.970Z,18.97
2014-08-06T05:37:41.957Z,19.24
2014-08-06T05:38:46.647Z,19.18
2014-08-06T05:39:51.617Z,19.29
2014-08-06T05:40:56.307Z,19.84
2014-08-06T05:42:00.981Z,19.95
2014-08-06T05:43:05.670Z,20.24
2014-08-06T05:44:10.345Z,19.98
2014-08-06T05:45:15.034Z,20.04
2014-08-06T05:46:20.004Z,19.96
2014-08-06T05:47:24.694Z,20.04
2014-08-06T05:48:29.665Z,21.1
2014-08-06T05:49:34.354Z,21.78
2014-08-06T05:50:39.044Z,21.92
2014-08-06T05:51:44.311Z,22.8
2014-08-06T05:52:49.594Z,22.63
2014-08-06T05:53:54.267Z,22.98
2014-08-06T05:54:59.257Z,23.84
2014-08-06T05:56:03.946Z,24.25
2014-08-06T05:57:08.933Z,24.71
2014-08-06T05:58:14.216Z,25.14
2014-08-06T05:59:18.498Z,25.85
2014-08-06T06:00:23.484Z,25.92
2014-08-06T06:01:28.159Z,26.11
2014-08-06T06:02:32.848Z,26.33
2014-08-06T06:03:38.131Z,26.95
2014-08-06T06:04:43.117Z,27.03
2014-08-06T06:05:47.807Z,27.02
2014-08-06T06:06:52.793Z,27.52
2014-08-06T06:07:57.780Z,27.61
2014-08-06T06:09:02.469Z,27.42
2014-08-06T06:10:07.159Z,27.18
2014-08-06T06:11:12.129Z,27.54
2014-08-06T06:12:16.821Z,27.38
2014-08-06T06:13:21.510Z,27.52
2014-08-06T06:14:26.199Z,27.92
2014-08-06T06:15:30.889Z,27.66
2014-08-06T06:16:35.876Z,28.43
2014-08-06T06:17:40.565Z,29
2014-08-06T06:18:45.552Z,30.24
2014-08-06T06:19:50.537Z,30.31
2014-08-06T06:20:55.523Z,30.08
2014-08-06T06:22:00.511Z,29.49
2014-08-06T06:23:05.793Z,29.51
2014-08-06T06:24:10.779Z,29.43
2014-08-06T06:25:14.782Z,27.88
2014-08-06T06:26:19.768Z,27.65
2014-08-06T06:27:24.457Z,27.93
2014-08-06T06:28:29.147Z,28.98
2014-08-06T06:29:33.836Z,28.86
2014-08-06T06:30:38.823Z,28.77
2014-08-06T06:31:44.108Z,29.76
2014-08-06T06:32:48.797Z,30.27
2014-08-06T06:33:53.784Z,29.98
2014-08-06T06:34:59.067Z,30.29
2014-08-06T06:36:03.757Z,30.88
2014-08-06T06:37:08.446Z,30.72
2014-08-06T06:38:13.136Z,31.16
2014-08-06T06:39:17.826Z,29.98
2014-08-06T06:40:22.515Z,29.22
2014-08-06T06:41:27.204Z,30.03
2014-08-06T06:42:32.487Z,30.06
2014-08-06T06:43:37.474Z,29.93
2014-08-06T06:44:42.163Z,29.37
2014-08-06T06:45:47.149Z,29.16
2014-08-06T06:46:52.433Z,29.71
2014-08-06T06:47:57.122Z,28.87
2014-08-06T06:49:01.811Z,29.62
2014-08-06T06:50:06.501Z,29.14
2014-08-06T06:51:11.192Z,28.72
2014-08-06T06:52:16.178Z,29.02
2014-08-06T06:53:21.165Z,27.77
2014-08-06T06:54:26.152Z,26.69
2014-08-06T06:55:30.857Z,26.36
2014-08-06T06:56:35.530Z,26.22
2014-08-06T06:57:40.220Z,26.12
2014-08-06T06:58:44.909Z,25.64
2014-08-06T06:59:49.911Z,25.17
2014-08-06T07:00:54.600Z,24.13
2014-08-06T07:01:59.274Z,24.02
2014-08-06T07:03:03.964Z,24.43
2014-08-06T07:04:08.653Z,24.74
2014-08-06T07:05:13.327Z,24.57
2014-08-06T07:06:18.016Z,24.56
2014-08-06T07:07:22.708Z,24.78
2014-08-06T07:08:27.678Z,24.64
2014-08-06T07:09:32.368Z,25.08
2014-08-06T07:10:37.355Z,24.94
2014-08-06T07:11:42.043Z,25.06
2014-08-06T07:12:47.030Z,25.29
2014-08-06T07:13:52.017Z,25.13
2014-08-06T07:14:56.987Z,24.94
2014-08-06T07:16:01.676Z,24.77
2014-08-06T07:17:06.960Z,24.82
2014-08-06T07:18:11.649Z,25.03
2014-08-06T07:19:16.323Z,24.9
2014-08-06T07:20:21.309Z,24.88
2014-08-06T07:21:25.999Z,24.68
2014-08-06T07:22:30.688Z,24.74
2014-08-06T07:23:35.378Z,24.78
2014-08-06T07:24:40.067Z,24.64
2014-08-06T07:25:45.056Z,24.77
2014-08-06T07:26:49.730Z,24.63
2014-08-06T07:27:55.013Z,24.43
2014-08-06T07:28:59.999Z,23.74
2014-08-06T07:30:04.688Z,23.62
2014-08-06T07:31:09.971Z,23.76
2014-08-06T07:32:14.957Z,24.16
2014-08-06T07:33:19.928Z,24.4
2014-08-06T07:34:24.618Z,24.44
2014-08-06T07:35:29.292Z,24.62
2014-08-06T07:36:34.278Z,24.51
2014-08-06T07:37:39.562Z,24.76
2014-08-06T07:38:44.251Z,24.71
2014-08-06T07:39:48.550Z,24.6
2014-08-06T07:40:53.536Z,24.5
2014-08-06T07:41:58.212Z,24.57
2014-08-06T07:43:03.198Z,24.54
2014-08-06T07:44:07.888Z,24.75
2014-08-06T07:45:12.577Z,24.94
2014-08-06T07:46:17.251Z,24.76
2014-08-06T07:47:21.940Z,24.8
2014-08-06T07:48:26.629Z,24.74
2014-08-06T07:49:31.615Z,24.84
2014-08-06T07:50:36.306Z,24.9
2014-08-06T07:51:40.980Z,25.08
2014-08-06T07:52:45.966Z,24.96
2014-08-06T07:53:50.951Z,24.93
2014-08-06T07:54:55.939Z,24.7
2014-08-06T07:56:00.643Z,24.85
2014-08-06T07:57:05.332Z,24.96
2014-08-06T07:58:10.321Z,24.98
2014-08-06T07:59:15.010Z,25.04
2014-08-06T08:00:19.981Z,24.99
2014-08-06T08:01:24.671Z,25.1
2014-08-06T08:02:29.360Z,24.8
2014-08-06T08:03:34.034Z,24.88
2014-08-06T08:04:38.723Z,24.82
2014-08-06T08:05:43.413Z,24.91
2014-08-06T08:06:48.102Z,24.72
2014-08-06T08:07:53.073Z,24.93
2014-08-06T08:08:58.060Z,24.87
2014-08-06T08:10:03.045Z,24.75
2014-08-06T08:11:08.328Z,24.55
2014-08-06T08:12:12.612Z,24.88
2014-08-06T08:13:17.302Z,25.09
2014-08-06T08:14:22.290Z,25.15
2014-08-06T08:15:26.979Z,24.74
2014-08-06T08:16:31.668Z,24.99
2014-08-06T08:17:36.358Z,25.11
2014-08-06T08:18:41.047Z,25.14
2014-08-06T08:19:46.018Z,25.22
2014-08-06T08:20:50.708Z,25.38
2014-08-06T08:21:55.991Z,25.06
2014-08-06T08:23:00.977Z,25.23
2014-08-06T08:24:06.259Z,25.3
2014-08-06T08:25:11.261Z,25.58
2014-08-06T08:26:16.249Z,25.78
2014-08-06T08:27:20.938Z,25.58
2014-08-06T08:28:25.611Z,25.53
2014-08-06T08:29:30.614Z,25.6
2014-08-06T08:30:35.601Z,24.91
2014-08-06T08:31:40.885Z,24.6
2014-08-06T08:32:45.559Z,24.27
2014-08-06T08:33:50.248Z,24.9
2014-08-06T08:34:54.953Z,25.23
2014-08-06T08:35:59.658Z,25.16
2014-08-06T08:37:04.645Z,25.38
2014-08-06T08:38:09.351Z,25.44
2014-08-06T08:39:14.040Z,24.82
2014-08-06T08:40:18.745Z,25.44
2014-08-06T08:41:23.732Z,25.39
2014-08-06T08:42:28.436Z,25.03
2014-08-06T08:43:33.127Z,25.38
2014-08-06T08:44:38.128Z,25.38
2014-08-06T08:45:42.817Z,25.52
2014-08-06T08:46:47.522Z,25.86
2014-08-06T08:47:52.212Z,25.87
2014-08-06T08:48:57.216Z,25.9
2014-08-06T08:50:02.499Z,25.89
2014-08-06T08:51:07.204Z,25.78
2014-08-06T08:52:11.893Z,25.65
2014-08-06T08:53:16.598Z,26.11
2014-08-06T08:54:21.584Z,26.15
2014-08-06T08:55:26.289Z,26.21
2014-08-06T08:56:30.994Z,26.4
2014-08-06T08:57:35.699Z,26.07
2014-08-06T08:58:39.716Z,25.66
2014-08-06T08:59:44.421Z,25.98
2014-08-06T09:00:49.111Z,25.94
2014-08-06T09:01:53.816Z,26.14
2014-08-06T09:02:58.804Z,25.58
2014-08-06T09:04:04.103Z,25.54
2014-08-06T09:05:09.089Z,25.34
2014-08-06T09:06:14.091Z,25.62
2014-08-06T09:07:19.078Z,26.06
2014-08-06T09:08:24.080Z,26.2
2014-08-06T09:09:29.066Z,26.05
2014-08-06T09:10:34.053Z,26.2
2014-08-06T09:11:38.758Z,25.7
2014-08-06T09:12:43.463Z,26.07
2014-08-06T09:13:48.449Z,26.25
2014-08-06T09:14:53.451Z,26.48
2014-08-06T09:15:57.766Z,26.51
2014-08-06T09:17:03.049Z,26.37
2014-08-06T09:18:08.333Z,25.53
2014-08-06T09:19:13.039Z,25.54
2014-08-06T09:20:18.322Z,25.88
2014-08-06T09:21:23.325Z,26.26
2014-08-06T09:22:28.529Z,26.15
2014-08-06T09:23:33.235Z,26.21
2014-08-06T09:24:38.220Z,25.88
2014-08-06T09:25:42.926Z,26.16
2014-08-06T09:26:48.210Z,26.33
2014-08-06T09:27:53.211Z,25.93
2014-08-06T09:28:57.900Z,26.27
2014-08-06T09:30:02.606Z,26.27
2014-08-06T09:31:07.592Z,26.58
2014-08-06T09:32:12.297Z,26.64
2014-08-06T09:33:17.283Z,26.5
2014-08-06T09:34:22.582Z,26.6
2014-08-06T09:35:27.287Z,26.76
2014-08-06T09:36:31.979Z,26.69
2014-08-06T09:37:36.684Z,26.67
2014-08-06T09:38:41.389Z,26.86
2014-08-06T09:39:46.094Z,27
2014-08-06T09:40:51.081Z,27.08
2014-08-06T09:41:55.786Z,26.66
2014-08-06T09:43:00.475Z,26.3
2014-08-06T09:44:05.180Z,26.4
2014-08-06T09:45:09.870Z,26.9
2014-08-06T09:46:14.575Z,26.88
2014-08-06T09:47:19.264Z,26.88
2014-08-06T09:48:23.969Z,26.67
2014-08-06T09:49:28.269Z,26.86
2014-08-06T09:50:32.973Z,26.98
2014-08-06T09:51:37.678Z,26.89
2014-08-06T09:52:42.665Z,26.88
2014-08-06T09:53:47.370Z,27
2014-08-06T09:54:52.356Z,27.07
2014-08-06T09:55:57.357Z,27.28
2014-08-06T09:57:02.063Z,27.1
2014-08-06T09:58:07.066Z,26.33
2014-08-06T09:59:11.757Z,26.48
2014-08-06T10:00:17.056Z,26.72
2014-08-06T10:01:22.057Z,26.71
2014-08-06T10:02:27.059Z,26.52
2014-08-06T10:03:31.748Z,26.7
2014-08-06T10:04:36.766Z,26.73
2014-08-06T10:05:41.487Z,26.82
2014-08-06T10:06:46.192Z,27.03
2014-08-06T10:07:50.880Z,26.82
2014-08-06T10:08:55.585Z,26.7
2014-08-06T10:10:00.276Z,26.66
2014-08-06T10:11:04.981Z,26.88
2014-08-06T10:12:09.672Z,26.92
2014-08-06T10:13:14.377Z,26.79
2014-08-06T10:14:19.067Z,26.82
2014-08-06T10:15:23.772Z,27.02
2014-08-06T10:16:28.461Z,27.04
2014-08-06T10:17:33.167Z,27.26
2014-08-06T10:18:37.872Z,27.44
2014-08-06T10:19:42.561Z,27.13
2014-08-06T10:20:47.564Z,26.88
2014-08-06T10:21:51.862Z,27.02
2014-08-06T10:22:56.568Z,26.44
2014-08-06T10:24:01.570Z,26.68
2014-08-06T10:25:06.572Z,26.84
2014-08-06T10:26:11.292Z,27.18
2014-08-06T10:27:15.982Z,26.4
2014-08-06T10:28:20.687Z,26.57
2014-08-06T10:29:25.376Z,26.62
2014-08-06T10:30:30.414Z,26.62
2014-08-06T10:31:35.160Z,26.27
2014-08-06T10:32:39.911Z,26.12
2014-08-06T10:33:44.640Z,26.44
2014-08-06T10:34:49.386Z,26.84
2014-08-06T10:35:54.105Z,26.91
2014-08-06T10:36:58.812Z,26.19
2014-08-06T10:38:03.829Z,25.6
2014-08-06T10:39:08.535Z,25.89
2014-08-06T10:40:13.844Z,25.69
2014-08-06T10:41:18.852Z,25.75
2014-08-06T10:42:23.625Z,26.13
2014-08-06T10:43:28.321Z,26.58
2014-08-06T10:44:33.625Z,26.8
2014-08-06T10:45:38.615Z,26.83
2014-08-06T10:46:43.620Z,26.94
2014-08-06T10:47:48.607Z,27.08
2014-08-06T10:48:53.314Z,27.21
2014-08-06T10:49:58.007Z,27.29
2014-08-06T10:51:02.711Z,27.5
2014-08-06T10:52:07.402Z,27.65
2014-08-06T10:53:12.107Z,27.5
2014-08-06T10:54:17.094Z,27.47
2014-08-06T10:55:21.799Z,27.3
2014-08-06T10:56:27.084Z,27.31
2014-08-06T10:57:31.788Z,27.6
2014-08-06T10:58:36.792Z,27.53
2014-08-06T10:59:41.496Z,27.4
2014-08-06T11:00:46.186Z,27.66
2014-08-06T11:01:50.891Z,27.36
2014-08-06T11:02:55.894Z,27.44
2014-08-06T11:04:00.584Z,27.09
2014-08-06T11:05:05.586Z,27.19
2014-08-06T11:06:10.291Z,27.51
2014-08-06T11:07:14.996Z,27.52
2014-08-06T11:08:19.701Z,27.28
2014-08-06T11:09:24.687Z,27.2
2014-08-06T11:10:29.392Z,27.52
2014-08-06T11:11:34.099Z,27.61
2014-08-06T11:12:39.101Z,27.68
2014-08-06T11:13:44.086Z,27.86
2014-08-06T11:14:49.088Z,27.76
2014-08-06T11:15:53.794Z,27.66
2014-08-06T11:16:58.779Z,27.77
2014-08-06T11:18:03.501Z,27.59
2014-08-06T11:19:08.190Z,27.91
2014-08-06T11:20:12.896Z,28.03
2014-08-06T11:21:17.898Z,28.39
2014-08-06T11:22:22.884Z,28.04
2014-08-06T11:23:27.589Z,28.29
2014-08-06T11:24:32.279Z,28.19
2014-08-06T11:25:36.984Z,28.01
2014-08-06T11:26:41.673Z,28.13
2014-08-06T11:27:46.379Z,27.64
2014-08-06T11:28:51.084Z,27.85
2014-08-06T11:29:55.773Z,27.96
2014-08-06T11:31:00.775Z,27.74
2014-08-06T11:32:05.480Z,27.34
2014-08-06T11:33:10.468Z,27
2014-08-06T11:34:15.173Z,27.02
2014-08-06T11:35:20.174Z,26.89
2014-08-06T11:36:24.864Z,27
2014-08-06T11:37:29.569Z,27
2014-08-06T11:38:34.555Z,26.93
2014-08-06T11:39:39.558Z,27.15
2014-08-06T11:40:44.279Z,27.11
2014-08-06T11:41:49.282Z,27.27
2014-08-06T11:42:53.972Z,26.82
2014-08-06T11:43:58.676Z,26.45
2014-08-06T11:45:03.382Z,26.93
2014-08-06T11:46:08.368Z,27.23
2014-08-06T11:47:13.371Z,27.28
2014-08-06T11:48:18.060Z,27.08
2014-08-06T11:49:23.061Z,27.12
2014-08-06T11:50:27.752Z,27.01
2014-08-06T11:51:32.754Z,27.5
2014-08-06T11:52:37.443Z,27.25
2014-08-06T11:53:42.180Z,26.92
2014-08-06T11:54:46.917Z,27.22
2014-08-06T11:55:51.918Z,26.67
2014-08-06T11:56:56.607Z,27.16
2014-08-06T11:58:01.314Z,27.41
2014-08-06T11:59:06.002Z,27.53
2014-08-06T12:00:10.708Z,27.66
2014-08-06T12:01:15.710Z,27.5
2014-08-06T12:02:20.399Z,27.24
2014-08-06T12:03:25.402Z,27.45
2014-08-06T12:04:31.076Z,27.6
2014-08-06T12:05:35.780Z,27.45
2014-08-06T12:06:40.783Z,27.33
2014-08-06T12:07:45.472Z,27.59
2014-08-06T12:08:50.177Z,27.7
2014-08-06T12:09:54.882Z,27.78
2014-08-06T12:10:59.572Z,27.75
2014-08-06T12:12:04.590Z,27.98
2014-08-06T12:13:09.279Z,28.01
2014-08-06T12:14:13.984Z,27.63
2014-08-06T12:15:18.986Z,27.69
2014-08-06T12:16:23.989Z,27.8
2014-08-06T12:17:29.287Z,28.07
2014-08-06T12:18:34.289Z,28.22
2014-08-06T12:19:38.980Z,28.18
2014-08-06T12:20:43.684Z,28.26
2014-08-06T12:21:48.390Z,27.61
2014-08-06T12:22:53.375Z,27.58
2014-08-06T12:23:58.080Z,28.3
2014-08-06T12:25:02.771Z,28.54
2014-08-06T12:26:07.585Z,28.14
2014-08-06T12:27:12.275Z,28.31
2014-08-06T12:28:16.980Z,28.6
2014-08-06T12:29:21.668Z,28.64
2014-08-06T12:30:26.671Z,27.98
2014-08-06T12:31:31.658Z,27.84
2014-08-06T12:32:36.363Z,28.12
2014-08-06T12:33:41.068Z,28.41
2014-08-06T12:34:45.758Z,27.88
2014-08-06T12:35:50.760Z,28.06
2014-08-06T12:36:55.762Z,28.09
2014-08-06T12:38:00.451Z,28.18
2014-08-06T12:39:05.156Z,28.1
2014-08-06T12:40:10.159Z,28.47
2014-08-06T12:41:15.145Z,28.44
2014-08-06T12:42:19.850Z,28.33
2014-08-06T12:43:24.556Z,28.34
2014-08-06T12:44:29.244Z,28.44
2014-08-06T12:45:34.247Z,28.65
2014-08-06T12:46:39.249Z,28.43
2014-08-06T12:47:44.235Z,28.66
2014-08-06T12:48:48.941Z,28.65
2014-08-06T12:49:53.645Z,28.82
2014-08-06T12:50:58.351Z,28.76
2014-08-06T12:52:03.041Z,29.08
2014-08-06T12:53:08.339Z,28.84
2014-08-06T12:54:13.029Z,28.5
2014-08-06T12:55:17.735Z,28.2
2014-08-06T12:56:22.439Z,28.47
2014-08-06T12:57:27.426Z,28.5
2014-08-06T12:58:32.429Z,28.39
2014-08-06T12:59:37.414Z,28.3
2014-08-06T13:00:42.119Z,28.34
2014-08-06T13:01:46.809Z,28.49
2014-08-06T13:02:51.811Z,27.94
2014-08-06T13:03:56.798Z,27.9
2014-08-06T13:05:01.502Z,28.23
2014-08-06T13:06:06.489Z,28.39
2014-08-06T13:07:11.491Z,28.65
2014-08-06T13:08:16.198Z,28.43
2014-08-06T13:09:20.904Z,28.73
2014-08-06T13:10:25.609Z,28.53
2014-08-06T13:11:30.595Z,28.64
2014-08-06T13:12:35.597Z,28.64
2014-08-06T13:13:40.599Z,28.65
2014-08-06T13:14:45.288Z,28.63
2014-08-06T13:15:50.291Z,28.6
2014-08-06T13:16:54.996Z,28.26
2014-08-06T13:17:59.701Z,28.25
2014-08-06T13:19:04.406Z,28.2
2014-08-06T13:20:09.392Z,28.32
2014-08-06T13:21:14.395Z,28.56
2014-08-06T13:22:19.381Z,28.63
2014-08-06T13:23:24.086Z,28.84
2014-08-06T13:24:29.088Z,28.85
2014-08-06T13:25:33.777Z,28.74
2014-08-06T13:26:38.483Z,28.78
2014-08-06T13:27:43.188Z,28.75
2014-08-06T13:28:47.878Z,28.99
2014-08-06T13:29:52.582Z,28.77
2014-08-06T13:30:57.272Z,28.84
2014-08-06T13:32:02.587Z,29
2014-08-06T13:33:07.574Z,28.77
2014-08-06T13:34:12.873Z,28.69
2014-08-06T13:35:17.562Z,28.73
2014-08-06T13:36:22.266Z,28.57
2014-08-06T13:37:27.254Z,28.86
2014-08-06T13:38:32.256Z,28.7
2014-08-06T13:39:37.539Z,28.4
2014-08-06T13:40:42.245Z,28.24
2014-08-06T13:41:47.246Z,28.2
2014-08-06T13:42:52.232Z,28.14
2014-08-06T13:43:57.531Z,28.23
2014-08-06T13:45:02.221Z,28.2
2014-08-06T13:46:06.926Z,28.4
2014-08-06T13:47:11.615Z,28.42
2014-08-06T13:48:16.320Z,28.67
2014-08-06T13:49:21.011Z,28.58
2014-08-06T13:50:26.012Z,28.62
2014-08-06T13:51:30.718Z,28.6
2014-08-06T13:52:35.719Z,28.76
2014-08-06T13:53:40.425Z,28.27
2014-08-06T13:54:45.412Z,28.12
2014-08-06T13:55:50.414Z,28.41
2014-08-06T13:56:55.416Z,28.17
2014-08-06T13:58:00.105Z,28.01
2014-08-06T13:59:04.810Z,28.18
2014-08-06T14:00:09.812Z,28.08
2014-08-06T14:01:14.502Z,28.42
2014-08-06T14:02:18.519Z,28.5
2014-08-06T14:03:23.209Z,28.34
2014-08-06T14:04:27.915Z,27.97
2014-08-06T14:05:32.916Z,28.03